createdAt,value
2022-09-03T00:02:28.867Z,99378.63
2022-09-03T00:05:23.310Z,99376.53
2022-09-03T00:08:13.581Z,99376.31
2022-09-03T00:11:08.998Z,99377.81
2022-09-03T00:14:03.064Z,99385.66
2022-09-03T00:16:54.720Z,99380.13
2022-09-03T00:19:47.993Z,99387.88
2022-09-03T00:22:39.426Z,99372.03
2022-09-03T00:25:30.396Z,99376.97
2022-09-03T00:28:24.352Z,99379.59
2022-09-03T00:31:18.291Z,99383.88
2022-09-03T00:34:10.847Z,99373.41
2022-09-03T00:36:59.429Z,99376.84
2022-09-03T00:39:48.868Z,99371.72
2022-09-03T00:42:43.828Z,99358.75
2022-09-03T00:45:38.904Z,99364.97
2022-09-03T00:48:29.757Z,99362.78
2022-09-03T00:51:25.522Z,99368.03
2022-09-03T00:54:18.905Z,99363.03
2022-09-03T00:57:25.363Z,99372.69
2022-09-03T01:00:16.359Z,99365.00
2022-09-03T01:03:08.864Z,99364.03
2022-09-03T01:06:11.053Z,99358.66
2022-09-03T01:09:13.630Z,99364.72
2022-09-03T01:12:08.071Z,99354.22
2022-09-03T01:15:05.362Z,99356.16
2022-09-03T01:18:04.047Z,99349.28
2022-09-03T01:21:05.072Z,99359.84
2022-09-03T01:24:19.144Z,99349.94
2022-09-03T01:27:19.292Z,99352.03
2022-09-03T01:30:10.417Z,99361.94
2022-09-03T01:33:02.818Z,99357.00
2022-09-03T01:35:54.309Z,99377.25
2022-09-03T01:38:45.809Z,99373.78
2022-09-03T01:42:03.286Z,99372.00
2022-09-03T01:45:23.317Z,99381.91
2022-09-03T01:48:30.634Z,99387.16
2022-09-03T01:51:21.946Z,99385.38
2022-09-03T01:54:50.384Z,99372.44
2022-09-03T01:57:49.578Z,99377.66
2022-09-03T02:00:40.793Z,99383.84
2022-09-03T02:03:35.528Z,99375.03
2022-09-03T02:06:31.676Z,99379.19
2022-09-03T02:09:20.370Z,99370.47
2022-09-03T02:12:13.040Z,99382.63
2022-09-03T02:15:03.666Z,99373.25
2022-09-03T02:17:56.135Z,99375.03
2022-09-03T02:20:44.764Z,99391.72
2022-09-03T02:23:33.241Z,99386.75
2022-09-03T02:26:24.475Z,99390.47
2022-09-03T02:29:12.988Z,99396.78
2022-09-03T02:32:01.477Z,99394.47
2022-09-03T02:34:51.325Z,99399.00
2022-09-03T02:37:39.861Z,99398.31
2022-09-03T02:40:28.433Z,99395.00
2022-09-03T02:43:20.219Z,99396.91
2022-09-03T02:46:16.168Z,99390.31
2022-09-03T02:49:04.912Z,99390.59
2022-09-03T02:51:59.219Z,99400.22
2022-09-03T02:54:47.682Z,99395.13
2022-09-03T02:57:36.152Z,99393.59
2022-09-03T03:00:24.823Z,99396.22
2022-09-03T03:03:13.334Z,99392.78
2022-09-03T03:06:04.026Z,99398.84
2022-09-03T03:08:57.776Z,99394.44
2022-09-03T03:11:46.809Z,99386.72
2022-09-03T03:14:35.312Z,99384.25
2022-09-03T03:17:23.729Z,99385.47
2022-09-03T03:20:12.476Z,99383.13
2022-09-03T03:23:04.738Z,99381.75
2022-09-03T03:25:54.567Z,99382.16
2022-09-03T03:28:43.175Z,99391.09
2022-09-03T03:31:31.816Z,99379.94
2022-09-03T03:34:20.277Z,99381.13
2022-09-03T03:37:08.740Z,99385.53
2022-09-03T03:39:57.372Z,99389.38
2022-09-03T03:42:47.349Z,99401.78
2022-09-03T03:45:35.967Z,99400.38
2022-09-03T03:48:24.588Z,99401.34
2022-09-03T03:51:13.363Z,99399.69
2022-09-03T03:54:05.010Z,99397.88
2022-09-03T03:56:55.703Z,99405.88
2022-09-03T03:59:45.635Z,99410.28
2022-09-03T04:02:39.073Z,99408.34
2022-09-03T04:05:27.931Z,99398.84
2022-09-03T04:08:22.386Z,99396.25
2022-09-03T04:11:12.322Z,99393.75
2022-09-03T04:14:00.725Z,99395.53
2022-09-03T04:16:51.231Z,99389.63
2022-09-03T04:19:39.785Z,99389.75
2022-09-03T04:22:29.740Z,99385.38
2022-09-03T04:25:18.197Z,99388.91
2022-09-03T04:28:06.666Z,99402.81
2022-09-03T04:30:55.350Z,99403.66
2022-09-03T04:33:45.311Z,99397.59
2022-09-03T04:36:33.791Z,99393.22
2022-09-03T04:39:22.225Z,99400.91
2022-09-03T04:42:10.729Z,99400.19
2022-09-03T04:44:59.227Z,99401.19
2022-09-03T04:47:58.515Z,99398.69
2022-09-03T04:50:48.304Z,99399.53
2022-09-03T04:53:38.892Z,99408.31
2022-09-03T04:56:28.747Z,99410.25
2022-09-03T04:59:17.324Z,99420.72
2022-09-03T05:02:06.007Z,99426.75
2022-09-03T05:04:54.559Z,99424.84
2022-09-03T05:07:45.030Z,99422.38
2022-09-03T05:10:33.921Z,99416.28
2022-09-03T05:13:22.442Z,99426.75
2022-09-03T05:16:13.091Z,99410.81
2022-09-03T05:19:03.593Z,99430.91
2022-09-03T05:21:52.131Z,99436.66
2022-09-03T05:24:41.919Z,99434.16
2022-09-03T05:27:30.342Z,99436.25
2022-09-03T05:30:19.116Z,99430.41
2022-09-03T05:33:07.563Z,99432.16
2022-09-03T05:35:56.517Z,99443.22
2022-09-03T05:38:45.203Z,99446.25
2022-09-03T05:41:35.339Z,99445.72
2022-09-03T05:44:23.963Z,99441.84
2022-09-03T05:47:12.379Z,99446.16
2022-09-03T05:50:01.014Z,99441.03
2022-09-03T05:52:49.495Z,99454.13
2022-09-03T05:55:37.952Z,99457.47
2022-09-03T05:58:31.622Z,99466.72
2022-09-03T06:01:21.017Z,99459.38
2022-09-03T06:04:11.741Z,99470.00
2022-09-03T06:07:00.209Z,99476.31
2022-09-03T06:09:48.669Z,99481.66
2022-09-03T06:12:37.149Z,99485.19
2022-09-03T06:15:27.087Z,99483.31
2022-09-03T06:18:15.575Z,99481.31
2022-09-03T06:21:05.868Z,99481.66
2022-09-03T06:23:56.575Z,99490.91
2022-09-03T06:26:47.085Z,99493.72
2022-09-03T06:29:36.242Z,99491.34
2022-09-03T06:32:26.128Z,99495.13
2022-09-03T06:35:14.819Z,99496.31
2022-09-03T06:38:03.326Z,99507.59
2022-09-03T06:40:55.134Z,99508.13
2022-09-03T06:43:43.714Z,99519.03
2022-09-03T06:46:33.120Z,99505.41
2022-09-03T06:49:24.529Z,99511.78
2022-09-03T06:52:13.020Z,99512.47
2022-09-03T06:55:01.502Z,99511.56
2022-09-03T06:57:52.900Z,99500.47
2022-09-03T07:00:41.730Z,99506.97
2022-09-03T07:03:30.234Z,99506.34
2022-09-03T07:06:21.722Z,99504.16
2022-09-03T07:09:11.158Z,99494.66
2022-09-03T07:11:59.668Z,99505.38
2022-09-03T07:14:48.546Z,99505.72
2022-09-03T07:17:39.840Z,99505.56
2022-09-03T07:20:28.296Z,99496.94
2022-09-03T07:23:18.285Z,99513.47
2022-09-03T07:26:08.107Z,99515.03
2022-09-03T07:28:56.766Z,99513.44
2022-09-03T07:31:45.360Z,99519.25
2022-09-03T07:34:35.746Z,99528.44
2022-09-03T07:37:25.424Z,99533.78
2022-09-03T07:40:19.842Z,99533.16
2022-09-03T07:43:08.335Z,99531.19
2022-09-03T07:45:57.956Z,99528.13
2022-09-03T07:48:48.984Z,99539.03
2022-09-03T07:51:38.971Z,99544.94
2022-09-03T07:54:27.915Z,99544.72
2022-09-03T07:57:17.836Z,99534.16
2022-09-03T08:00:08.100Z,99551.94
2022-09-03T08:03:05.948Z,99551.34
2022-09-03T08:05:55.145Z,99548.97
2022-09-03T08:08:45.172Z,99554.06
2022-09-03T08:11:35.026Z,99551.94
2022-09-03T08:14:24.879Z,99547.56
2022-09-03T08:17:13.552Z,99540.91
2022-09-03T08:20:02.110Z,99537.59
2022-09-03T08:22:51.174Z,99517.81
2022-09-03T08:25:39.681Z,99501.53
2022-09-03T08:28:28.240Z,99482.00
2022-09-03T08:31:19.739Z,99492.53
2022-09-03T08:34:10.444Z,99503.44
2022-09-03T08:36:59.009Z,99524.56
2022-09-03T08:39:47.541Z,99529.66
2022-09-03T08:42:46.440Z,99527.53
2022-09-03T08:45:38.168Z,99532.13
2022-09-03T08:48:28.392Z,99532.72
2022-09-03T08:51:17.528Z,99537.13
2022-09-03T08:54:06.256Z,99541.19
2022-09-03T08:56:54.670Z,99546.84
2022-09-03T08:59:43.179Z,99558.34
2022-09-03T09:02:37.615Z,99566.53
2022-09-03T09:05:38.474Z,99572.66
2022-09-03T09:08:35.468Z,99572.50
2022-09-03T09:11:32.591Z,99595.41
2022-09-03T09:14:25.401Z,99595.16
2022-09-03T09:17:33.231Z,99603.34
2022-09-03T09:20:30.249Z,99606.28
2022-09-03T09:23:23.956Z,99603.56
2022-09-03T09:26:16.905Z,99608.31
2022-09-03T09:29:10.247Z,99610.81
2022-09-03T09:31:58.852Z,99612.47
2022-09-03T09:34:51.844Z,99614.94
2022-09-03T09:37:51.115Z,99611.72
2022-09-03T09:40:44.878Z,99605.16
2022-09-03T09:43:33.910Z,99598.34
2022-09-03T09:46:24.028Z,99593.19
2022-09-03T09:49:30.095Z,99589.81
2022-09-03T09:52:18.883Z,99596.44
2022-09-03T09:55:10.881Z,99593.81
2022-09-03T09:58:13.980Z,99584.78
2022-09-03T10:01:12.951Z,99565.75
2022-09-03T10:04:09.036Z,99564.31
2022-09-03T10:07:00.185Z,99574.25
2022-09-03T10:10:02.724Z,99564.69
2022-09-03T10:12:58.291Z,99562.59
2022-09-03T10:15:48.875Z,99566.78
2022-09-03T10:18:41.813Z,99567.09
2022-09-03T10:21:43.054Z,99569.25
2022-09-03T10:24:52.468Z,99562.41
2022-09-03T10:27:42.223Z,99546.50
2022-09-03T10:30:32.411Z,99547.16
2022-09-03T10:33:25.325Z,99549.25
2022-09-03T10:36:20.000Z,99541.03
2022-09-03T10:39:14.143Z,99540.06
2022-09-03T10:42:11.012Z,99539.16
2022-09-03T10:45:04.953Z,99537.88
2022-09-03T10:48:35.443Z,99535.75
2022-09-03T10:51:26.427Z,99525.03
2022-09-03T10:54:27.424Z,99533.59
2022-09-03T10:57:24.440Z,99534.56
2022-09-03T11:00:13.950Z,99524.00
2022-09-03T11:03:44.987Z,99523.31
2022-09-03T11:06:40.222Z,99524.06
2022-09-03T11:09:32.482Z,99525.38
2022-09-03T11:12:25.387Z,99530.97
2022-09-03T11:15:17.349Z,99526.72
2022-09-03T11:18:12.451Z,99524.91
2022-09-03T11:21:07.662Z,99523.56
2022-09-03T11:24:07.562Z,99533.06
2022-09-03T11:26:59.074Z,99529.91
2022-09-03T11:29:50.997Z,99521.66
2022-09-03T11:32:49.839Z,99523.16
2022-09-03T11:35:43.165Z,99520.00
2022-09-03T11:38:33.142Z,99519.50
2022-09-03T11:41:26.935Z,99516.84
2022-09-03T11:44:19.596Z,99522.97
2022-09-03T11:47:17.194Z,99515.06
2022-09-03T11:50:08.972Z,99513.16
2022-09-03T11:53:10.119Z,99511.00
2022-09-03T11:56:03.694Z,99508.19
2022-09-03T11:59:18.430Z,99506.13
2022-09-03T12:02:20.954Z,99506.06
2022-09-03T12:05:25.498Z,99505.66
2022-09-03T12:09:02.501Z,99503.44
2022-09-03T12:11:58.538Z,99497.16
2022-09-03T12:14:50.550Z,99502.00
2022-09-03T12:17:43.097Z,99511.97
2022-09-03T12:20:31.748Z,99503.94
2022-09-03T12:23:29.152Z,99499.97
2022-09-03T12:26:19.777Z,99486.69
2022-09-03T12:29:27.827Z,99483.75
2022-09-03T12:32:16.520Z,99490.19
2022-09-03T12:35:14.329Z,99488.06
2022-09-03T12:38:05.959Z,99485.88
2022-09-03T12:44:05.097Z,99472.44
2022-09-03T12:50:12.661Z,99480.97
2022-09-03T12:53:02.628Z,99482.81
2022-09-03T12:55:53.171Z,99485.94
2022-09-03T12:58:45.804Z,99490.84
2022-09-03T13:01:38.110Z,99494.25
2022-09-03T13:04:29.300Z,99505.00
2022-09-03T13:07:25.276Z,99498.97
2022-09-03T13:10:25.044Z,99501.84
2022-09-03T13:13:22.983Z,99510.22
2022-09-03T13:16:44.925Z,99509.59
2022-09-03T13:19:43.845Z,99504.38
2022-09-03T13:22:37.987Z,99506.91
2022-09-03T13:25:29.291Z,99515.13
2022-09-03T13:28:28.769Z,99507.84
2022-09-03T13:31:28.874Z,99509.72
2022-09-03T13:34:19.987Z,99517.25
2022-09-03T13:37:18.361Z,99500.91
2022-09-03T13:40:16.017Z,99519.44
2022-09-03T13:43:13.419Z,99499.13
2022-09-03T13:46:04.701Z,99510.44
2022-09-03T13:49:10.616Z,99507.25
2022-09-03T13:52:01.856Z,99499.63
2022-09-03T13:54:55.159Z,99491.84
2022-09-03T13:57:49.610Z,99496.81
2022-09-03T14:00:42.134Z,99496.44
2022-09-03T14:03:33.450Z,99498.91
2022-09-03T14:06:40.607Z,99500.50
2022-09-03T14:09:37.186Z,99495.13
2022-09-03T14:12:42.438Z,99497.41
2022-09-03T14:15:35.098Z,99501.66
2022-09-03T14:18:35.034Z,99504.97
2022-09-03T14:21:26.136Z,99489.38
2022-09-03T14:24:17.666Z,99471.88
2022-09-03T14:27:07.577Z,99482.44
2022-09-03T14:30:03.962Z,99474.88
2022-09-03T14:32:54.976Z,99481.91
2022-09-03T14:36:00.828Z,99484.06
2022-09-03T14:39:24.613Z,99497.16
2022-09-03T14:42:35.635Z,99506.44
2022-09-03T14:46:05.716Z,99498.44
2022-09-03T14:49:35.433Z,99502.44
2022-09-03T14:52:58.866Z,99499.59
2022-09-03T14:56:11.654Z,99493.50
2022-09-03T14:59:26.104Z,99496.44
2022-09-03T15:02:59.566Z,99497.84
2022-09-03T15:06:05.674Z,99504.44
2022-09-03T15:09:16.758Z,99516.75
2022-09-03T15:12:10.943Z,99514.53
2022-09-03T15:15:02.152Z,99505.75
2022-09-03T15:18:04.805Z,99511.75
2022-09-03T15:20:54.516Z,99520.72
2022-09-03T15:24:56.594Z,99515.19
2022-09-03T15:27:59.650Z,99514.16
2022-09-03T15:30:53.236Z,99516.16
2022-09-03T15:33:46.006Z,99504.28
2022-09-03T15:36:38.919Z,99516.16
2022-09-03T15:39:29.769Z,99518.13
2022-09-03T15:42:27.286Z,99510.53
2022-09-03T15:45:22.106Z,99509.88
2022-09-03T15:48:19.119Z,99500.97
2022-09-03T15:51:14.540Z,99498.69
2022-09-03T15:54:10.845Z,99491.09
2022-09-03T15:57:03.534Z,99490.75
2022-09-03T15:59:59.650Z,99492.41
2022-09-03T16:02:54.500Z,99497.69
2022-09-03T16:05:45.612Z,99488.94
2022-09-03T16:08:41.114Z,99500.66
2022-09-03T16:11:37.388Z,99497.69
2022-09-03T16:14:31.025Z,99497.69
2022-09-03T16:17:27.847Z,99499.66
2022-09-03T16:20:19.493Z,99494.53
2022-09-03T16:23:13.250Z,99503.22
2022-09-03T16:26:05.493Z,99506.47
2022-09-03T16:28:58.482Z,99522.59
2022-09-03T16:31:57.388Z,99527.31
2022-09-03T16:34:55.702Z,99531.16
2022-09-03T16:37:52.460Z,99528.97
2022-09-03T16:40:44.075Z,99538.81
2022-09-03T16:43:41.951Z,99536.94
2022-09-03T16:46:37.475Z,99551.22
2022-09-03T16:49:39.557Z,99548.63
2022-09-03T16:52:38.829Z,99551.19
2022-09-03T16:55:33.766Z,99555.66
2022-09-03T16:58:25.756Z,99554.41
2022-09-03T17:01:22.895Z,99544.00
2022-09-03T17:04:43.091Z,99556.31
2022-09-03T17:07:54.084Z,99547.44
2022-09-03T17:10:47.153Z,99545.63
2022-09-03T17:13:55.824Z,99550.00
2022-09-03T17:16:52.434Z,99548.81
2022-09-03T17:19:46.026Z,99552.69
2022-09-03T17:22:46.237Z,99551.13
2022-09-03T17:25:37.189Z,99559.47
2022-09-03T17:28:30.534Z,99551.56
2022-09-03T17:31:23.039Z,99554.34
2022-09-03T17:34:15.636Z,99552.38
2022-09-03T17:37:13.451Z,99559.16
2022-09-03T17:40:12.745Z,99564.25
2022-09-03T17:43:06.418Z,99558.41
2022-09-03T17:45:57.941Z,99565.19
2022-09-03T17:48:55.671Z,99567.56
2022-09-03T17:51:48.040Z,99562.47
2022-09-03T17:54:42.080Z,99576.16
2022-09-03T17:57:34.072Z,99577.13
2022-09-03T18:00:25.277Z,99573.81
2022-09-03T18:03:18.917Z,99586.97
2022-09-03T18:06:11.274Z,99576.44
2022-09-03T18:09:02.783Z,99587.66
2022-09-03T18:11:55.212Z,99606.06
2022-09-03T18:14:51.991Z,99602.56
2022-09-03T18:17:45.285Z,99607.47
2022-09-03T18:21:21.933Z,99607.59
2022-09-03T18:24:40.119Z,99614.00
2022-09-03T18:27:48.061Z,99618.44
2022-09-03T18:30:55.652Z,99615.38
2022-09-03T18:34:01.579Z,99619.41
2022-09-03T18:37:07.982Z,99628.19
2022-09-03T18:40:14.131Z,99633.19
2022-09-03T18:43:28.348Z,99636.56
2022-09-03T18:47:56.302Z,99637.56
2022-09-03T18:50:07.230Z,99637.19
2022-09-03T18:53:15.352Z,99645.66
2022-09-03T18:56:28.024Z,99648.31
2022-09-03T18:59:46.744Z,99655.38
2022-09-03T19:03:23.585Z,99654.81
2022-09-03T19:06:37.989Z,99655.53
2022-09-03T19:09:56.080Z,99657.47
2022-09-03T19:13:20.157Z,99652.94
2022-09-03T19:16:29.699Z,99667.13
2022-09-03T19:19:56.476Z,99659.34
2022-09-03T19:23:02.488Z,99662.69
2022-09-03T19:26:08.928Z,99667.88
2022-09-03T19:29:16.432Z,99669.69
2022-09-03T19:32:23.316Z,99685.81
2022-09-03T19:35:35.035Z,99681.91
2022-09-03T19:38:45.144Z,99685.66
2022-09-03T19:41:55.131Z,99685.63
2022-09-03T19:45:09.613Z,99684.44
2022-09-03T19:48:22.288Z,99683.94
2022-09-03T19:51:33.308Z,99693.78
2022-09-03T19:54:41.769Z,99685.31
2022-09-03T19:57:47.985Z,99699.88
2022-09-03T20:00:54.103Z,99694.50
2022-09-03T20:04:00.730Z,99705.63
2022-09-03T20:07:08.285Z,99701.25
2022-09-03T20:10:16.386Z,99701.19
2022-09-03T20:13:08.396Z,99696.81
2022-09-03T20:16:01.135Z,99702.66
2022-09-03T20:18:54.675Z,99706.88
2022-09-03T20:21:50.054Z,99702.94
2022-09-03T20:24:47.630Z,99707.94
2022-09-03T20:27:44.583Z,99706.78
2022-09-03T20:30:35.730Z,99709.00
2022-09-03T20:33:32.369Z,99712.97
2022-09-03T20:36:28.527Z,99719.47
2022-09-03T20:39:31.956Z,99717.22
2022-09-03T20:42:47.658Z,99716.78
2022-09-03T20:45:44.458Z,99715.25
2022-09-03T20:48:36.746Z,99714.53
2022-09-03T20:51:28.139Z,99711.31
2022-09-03T20:54:22.135Z,99713.19
2022-09-03T20:57:22.247Z,99712.63
2022-09-03T21:00:13.889Z,99712.84
2022-09-03T21:03:13.008Z,99712.50
2022-09-03T21:06:12.835Z,99716.88
2022-09-03T21:09:30.164Z,99721.28
2022-09-03T21:12:23.637Z,99724.00
2022-09-03T21:15:17.163Z,99726.97
2022-09-03T21:18:11.586Z,99727.34
2022-09-03T21:21:09.597Z,99737.88
2022-09-03T21:24:04.940Z,99738.34
2022-09-03T21:26:58.228Z,99740.47
2022-09-03T21:29:50.678Z,99752.09
2022-09-03T21:32:43.851Z,99742.84
2022-09-03T21:35:35.814Z,99744.75
2022-09-03T21:38:26.914Z,99747.53
2022-09-03T21:41:19.824Z,99755.50
2022-09-03T21:44:14.601Z,99762.47
2022-09-03T21:47:06.816Z,99750.59
2022-09-03T21:50:04.135Z,99754.28
2022-09-03T21:52:55.110Z,99763.16
2022-09-03T21:55:50.018Z,99758.19
2022-09-03T21:58:51.621Z,99756.75
2022-09-03T22:01:56.933Z,99767.44
2022-09-03T22:04:45.436Z,99770.72
2022-09-03T22:07:45.298Z,99760.91
2022-09-03T22:10:46.426Z,99750.75
2022-09-03T22:13:39.463Z,99751.22
2022-09-03T22:16:31.533Z,99748.41
2022-09-03T22:19:21.515Z,99759.00
2022-09-03T22:22:14.045Z,99759.72
2022-09-03T22:25:05.729Z,99759.22
2022-09-03T22:28:00.840Z,99760.78
2022-09-03T22:30:53.414Z,99761.16
2022-09-03T22:33:45.531Z,99763.75
2022-09-03T22:36:36.799Z,99761.59
2022-09-03T22:39:29.736Z,99765.38
2022-09-03T22:42:44.289Z,99758.72
2022-09-03T22:45:44.825Z,99765.09
2022-09-03T22:48:57.529Z,99772.19
2022-09-03T22:51:57.939Z,99771.81
2022-09-03T22:54:57.229Z,99762.44
2022-09-03T22:57:57.587Z,99775.63
2022-09-03T23:00:49.860Z,99776.66
2022-09-03T23:03:44.108Z,99777.84
2022-09-03T23:06:35.309Z,99782.34
2022-09-03T23:09:28.968Z,99786.84
2022-09-03T23:12:20.198Z,99787.06
2022-09-03T23:15:11.417Z,99792.50
2022-09-03T23:18:05.575Z,99796.19
2022-09-03T23:21:01.174Z,99792.22
2022-09-03T23:23:54.964Z,99804.53
2022-09-03T23:26:47.869Z,99798.94
2022-09-03T23:29:38.764Z,99799.81
2022-09-03T23:32:31.260Z,99804.50
2022-09-03T23:35:22.081Z,99805.56
2022-09-03T23:38:16.786Z,99797.00
2022-09-03T23:41:07.322Z,99799.94
2022-09-03T23:44:07.646Z,99805.41
2022-09-03T23:47:00.830Z,99800.28
2022-09-03T23:49:56.407Z,99807.28
2022-09-03T23:52:59.693Z,99805.81
2022-09-03T23:55:57.351Z,99809.25
2022-09-03T23:58:55.949Z,99804.19
